Time;durP1;ratioP1;P1;durP2;ratioP2;P2;SDS_P1;SDS_P2;PMS_P1;PMS_P2;Temp;Humidity;BMP_temperature;BMP_pressure;BME280_temperature;BME280_humidity;BME280_pressure;Samples;Min_cycle;Max_cycle;Signal;HPM_P1;HPM_P2
2021/11/25 00:00:41;;;;;;;30.90;15.32;;;;;;;21.68;16.88;98359.34;5021885;28;20507;-78
2021/11/25 00:03:07;;;;;;;34.95;17.50;;;;;;;21.70;17.28;98348.56;5027855;28;20041;-79
2021/11/25 00:05:34;;;;;;;30.75;15.88;;;;;;;21.49;17.19;98347.94;5031902;28;20509;-78
2021/11/25 00:08:03;;;;;;;35.63;15.40;;;;;;;21.51;16.99;98342.72;5028991;28;20159;-78
2021/11/25 00:10:31;;;;;;;33.90;15.13;;;;;;;21.59;17.29;98341.44;5029761;28;20041;-79
2021/11/25 00:12:57;;;;;;;34.95;15.77;;;;;;;21.45;17.25;98333.19;5026594;28;20030;-79
2021/11/25 00:15:25;;;;;;;31.45;15.52;;;;;;;21.41;17.38;98338.78;5030558;28;20033;-78
2021/11/25 00:17:51;;;;;;;38.65;15.77;;;;;;;21.34;17.69;98331.25;5029626;28;20030;-79
2021/11/25 00:20:18;;;;;;;32.65;14.60;;;;;;;21.21;17.38;98337.75;5031013;28;20120;-79
2021/11/25 00:22:44;;;;;;;37.42;16.45;;;;;;;21.37;17.38;98332.44;5024113;28;20050;-78
2021/11/25 00:25:11;;;;;;;35.03;17.05;;;;;;;21.07;17.82;98329.44;5031882;28;20120;-78
2021/11/25 00:27:40;;;;;;;29.80;14.88;;;;;;;20.77;17.82;98324.38;5032028;28;20483;-78
2021/11/25 00:30:08;;;;;;;30.08;14.48;;;;;;;20.83;18.17;98328.34;5032339;28;20478;-79
2021/11/25 00:32:34;;;;;;;37.75;18.75;;;;;;;20.83;18.12;98325.56;5026630;28;20652;-79
2021/11/25 00:35:01;;;;;;;36.72;15.57;;;;;;;20.78;18.15;98311.22;5032012;28;20104;-79
2021/11/25 00:37:27;;;;;;;32.22;15.65;;;;;;;20.96;17.72;98323.88;5030290;28;20060;-79
2021/11/25 00:39:53;;;;;;;34.70;15.70;;;;;;;21.00;17.64;98316.31;5030483;28;20040;-79
2021/11/25 00:42:20;;;;;;;35.28;14.82;;;;;;;20.99;17.59;98303.53;5026905;28;20547;-79
2021/11/25 00:44:46;;;;;;;37.67;15.27;;;;;;;21.13;17.57;98303.47;5032832;28;20156;-79
2021/11/25 00:47:12;;;;;;;27.58;13.25;;;;;;;21.05;17.57;98303.94;5023554;28;20034;-78
2021/11/25 00:49:38;;;;;;;37.80;16.85;;;;;;;20.96;17.93;98303.53;5029876;28;20042;-79
2021/11/25 00:52:05;;;;;;;28.92;13.93;;;;;;;20.86;17.89;98291.25;5030084;28;20045;-78
2021/11/25 00:54:31;;;;;;;36.25;16.17;;;;;;;21.11;17.68;98291.94;5029041;28;20034;-78
2021/11/25 00:56:58;;;;;;;33.30;16.23;;;;;;;21.30;17.54;98294.19;5032923;28;20489;-78
2021/11/25 00:59:24;;;;;;;30.65;14.57;;;;;;;21.36;17.16;98286.16;5032442;28;20041;-78
2021/11/25 01:01:50;;;;;;;37.17;16.70;;;;;;;21.00;18.14;98284.81;5029979;28;20486;-79
2021/11/25 01:04:16;;;;;;;37.83;15.45;;;;;;;21.02;17.50;98285.19;5028133;28;20038;-79
2021/11/25 01:06:42;;;;;;;31.58;15.25;;;;;;;21.05;17.88;98282.38;5027857;28;20040;-79
2021/11/25 01:09:09;;;;;;;31.45;15.38;;;;;;;21.17;17.53;98273.53;5027786;28;20056;-78
2021/11/25 01:11:35;;;;;;;34.72;16.20;;;;;;;20.90;18.28;98274.47;5030530;28;20029;-78
2021/11/25 01:14:01;;;;;;;31.85;16.20;;;;;;;20.74;18.01;98266.59;5031368;28;20079;-78
2021/11/25 01:16:27;;;;;;;32.58;16.52;;;;;;;19.80;19.08;98262.94;5027444;28;20057;-79
2021/11/25 01:18:54;;;;;;;37.53;17.67;;;;;;;19.94;19.02;98263.72;5030521;28;20379;-78
2021/11/25 01:21:20;;;;;;;37.22;18.45;;;;;;;20.05;18.94;98260.88;5030598;28;20056;-78
2021/11/25 01:23:46;;;;;;;37.38;15.93;;;;;;;19.99;18.58;98254.13;5031158;28;20034;-78
2021/11/25 01:26:12;;;;;;;34.17;14.70;;;;;;;20.34;18.48;98244.88;5031451;28;20482;-79
2021/11/25 01:28:38;;;;;;;27.42;14.32;;;;;;;20.30;18.26;98244.13;5030857;28;20425;-78
2021/11/25 01:31:05;;;;;;;37.58;16.88;;;;;;;20.64;18.18;98242.34;5030149;28;20108;-79
2021/11/25 01:33:32;;;;;;;30.90;15.50;;;;;;;20.72;18.15;98241.13;5030432;28;20095;-79
2021/11/25 01:35:59;;;;;;;35.70;16.23;;;;;;;20.02;18.89;98230.25;5024843;28;20033;-79
2021/11/25 01:38:27;;;;;;;33.95;14.80;;;;;;;20.27;18.44;98234.56;5028828;28;20124;-79
2021/11/25 01:40:53;;;;;;;28.20;14.45;;;;;;;20.14;18.76;98238.94;5026557;28;20037;-79
2021/11/25 01:43:22;;;;;;;27.58;14.13;;;;;;;20.08;18.75;98223.03;5026056;28;20034;-79
2021/11/25 01:45:52;;;;;;;32.65;16.00;;;;;;;20.08;18.76;98214.69;5029998;28;20061;-79
2021/11/25 01:48:19;;;;;;;35.85;15.63;;;;;;;20.25;18.55;98209.09;5031653;28;20040;-78
2021/11/25 01:50:46;;;;;;;29.40;13.13;;;;;;;20.57;18.03;98201.34;5030169;28;20060;-78
2021/11/25 01:53:14;;;;;;;28.52;12.73;;;;;;;20.91;17.34;98209.88;5029844;28;20404;-78
2021/11/25 01:55:40;;;;;;;32.83;14.82;;;;;;;21.09;16.88;98204.19;5031441;28;20032;-78
2021/11/25 01:58:07;;;;;;;27.90;13.48;;;;;;;21.15;16.87;98194.97;5031348;28;20419;-78
2021/11/25 02:00:43;;;;;;;34.33;14.30;;;;;;;21.15;16.78;98192.19;5029678;28;20500;-78
2021/11/25 02:03:10;;;;;;;25.65;13.25;;;;;;;21.17;16.73;98189.75;5035460;28;20030;-78
2021/11/25 02:05:36;;;;;;;29.25;13.00;;;;;;;21.23;16.90;98187.34;5033280;28;20026;-78
2021/11/25 02:08:04;;;;;;;28.95;13.27;;;;;;;21.31;16.77;98184.06;5032015;28;20485;-78
2021/11/25 02:10:31;;;;;;;29.38;13.07;;;;;;;21.14;17.23;98185.00;5032138;28;20037;-78
2021/11/25 02:12:57;;;;;;;25.27;13.00;;;;;;;20.78;17.36;98180.88;5033202;28;20037;-78
2021/11/25 02:15:24;;;;;;;26.45;12.43;;;;;;;20.79;17.33;98174.09;5034463;28;20041;-78
2021/11/25 02:17:50;;;;;;;28.52;12.73;;;;;;;20.80;17.46;98169.28;5032429;28;20034;-78
2021/11/25 02:20:16;;;;;;;29.02;13.15;;;;;;;20.84;17.22;98167.28;5030915;28;20398;-78
2021/11/25 02:22:44;;;;;;;22.95;11.48;;;;;;;20.55;17.71;98158.31;5031742;28;20042;-78
2021/11/25 02:25:13;;;;;;;23.70;11.98;;;;;;;19.90;18.13;98159.81;5026871;28;20041;-78
2021/11/25 02:27:43;;;;;;;20.15;10.27;;;;;;;20.05;18.05;98160.53;5034246;28;20033;-78
2021/11/25 02:30:10;;;;;;;24.25;13.20;;;;;;;19.64;19.12;98149.16;5027575;28;20040;-78
2021/11/25 02:32:39;;;;;;;24.85;11.20;;;;;;;19.71;18.65;98148.34;5025637;28;20052;-78
2021/11/25 02:35:12;;;;;;;23.45;11.45;;;;;;;19.90;18.42;98139.53;5030857;28;20371;-78
2021/11/25 02:37:38;;;;;;;24.83;11.52;;;;;;;19.64;18.90;98140.81;5034494;28;20087;-78
2021/11/25 02:40:24;;;;;;;20.65;11.02;;;;;;;19.69;18.85;98136.81;5028686;28;20516;-78
2021/11/25 02:42:58;;;;;;;23.70;11.77;;;;;;;19.90;18.36;98129.19;5032154;28;20128;-78
2021/11/25 02:45:26;;;;;;;25.30;11.35;;;;;;;19.60;18.76;98117.75;5033957;28;20117;-78
2021/11/25 02:47:53;;;;;;;24.67;12.70;;;;;;;19.28;19.42;98115.00;5030909;28;20041;-78
2021/11/25 02:50:21;;;;;;;23.52;11.70;;;;;;;19.49;19.17;98116.16;5033457;28;20072;-78
2021/11/25 02:52:48;;;;;;;25.95;12.60;;;;;;;19.73;18.75;98112.50;5033657;28;20026;-78
2021/11/25 02:55:16;;;;;;;22.52;11.80;;;;;;;19.89;18.69;98104.47;5033811;28;20029;-78
2021/11/25 02:57:43;;;;;;;25.45;12.57;;;;;;;20.21;17.96;98109.91;5034262;28;20033;-78
2021/11/25 03:00:21;;;;;;;22.10;10.63;;;;;;;20.44;17.61;98105.38;5033833;28;20117;-79
2021/11/25 03:03:05;;;;;;;23.15;10.85;;;;;;;20.68;17.25;98092.47;5030504;28;20029;-78
2021/11/25 03:05:31;;;;;;;23.92;11.40;;;;;;;20.54;18.04;98096.16;5033787;28;20037;-78
2021/11/25 03:08:01;;;;;;;24.52;11.20;;;;;;;20.48;17.89;98086.66;5033547;28;20045;-78
2021/11/25 03:10:28;;;;;;;19.30;9.40;;;;;;;20.67;17.13;98079.72;5033890;28;20065;-78
2021/11/25 03:12:54;;;;;;;25.77;11.82;;;;;;;20.58;17.67;98079.41;5032604;28;20521;-78
2021/11/25 03:15:29;;;;;;;23.90;11.15;;;;;;;20.21;17.69;98068.09;5031851;28;20033;-78
2021/11/25 03:17:55;;;;;;;22.23;10.07;;;;;;;19.52;18.34;98070.81;5031761;28;20025;-78
2021/11/25 03:20:22;;;;;;;19.88;9.40;;;;;;;19.88;17.90;98070.25;5033931;28;20123;-78
2021/11/25 03:22:48;;;;;;;19.60;9.93;;;;;;;19.98;18.20;98066.63;5027981;28;20093;-78
2021/11/25 03:25:14;;;;;;;19.55;9.30;;;;;;;19.08;19.09;98065.75;5032630;28;20401;-78
2021/11/25 03:27:40;;;;;;;18.60;8.55;;;;;;;19.43;18.61;98059.31;5037616;28;20037;-78
2021/11/25 03:30:08;;;;;;;20.83;8.98;;;;;;;19.99;17.82;98059.06;5023942;28;20045;-78
2021/11/25 03:32:34;;;;;;;18.73;8.93;;;;;;;20.42;17.53;98063.16;5031083;28;20516;-79
2021/11/25 03:35:00;;;;;;;20.45;9.93;;;;;;;20.61;17.26;98056.25;5033591;28;20029;-79
2021/11/25 03:37:26;;;;;;;21.45;9.10;;;;;;;20.28;17.55;98049.31;5033678;28;20048;-78
2021/11/25 03:39:52;;;;;;;20.08;9.68;;;;;;;20.19;17.80;98048.97;5039889;28;20034;-78
2021/11/25 03:42:18;;;;;;;18.90;9.00;;;;;;;20.58;17.55;98045.94;5027038;28;20037;-79
2021/11/25 03:44:46;;;;;;;18.98;9.40;;;;;;;20.83;17.24;98038.13;5029688;28;20490;-79
2021/11/25 03:47:12;;;;;;;20.27;8.13;;;;;;;20.78;16.98;98034.97;5025200;28;20077;-79
2021/11/25 03:49:39;;;;;;;17.65;7.53;;;;;;;20.66;17.22;98039.06;5030914;28;20030;-79
2021/11/25 03:52:05;;;;;;;14.00;7.63;;;;;;;20.78;16.94;98032.19;5032697;28;20447;-79
2021/11/25 03:54:32;;;;;;;20.33;9.30;;;;;;;20.68;16.96;98031.06;5032572;28;20059;-79
2021/11/25 03:56:58;;;;;;;17.05;8.18;;;;;;;19.91;17.49;98030.44;5033138;28;20026;-79
2021/11/25 03:59:24;;;;;;;17.23;8.13;;;;;;;16.89;20.80;98026.38;5027389;28;20037;-79
2021/11/25 04:01:50;;;;;;;14.00;7.88;;;;;;;17.17;20.93;98028.50;5031499;28;20033;-79
2021/11/25 04:04:16;;;;;;;20.92;9.52;;;;;;;18.45;19.72;98020.16;5030841;28;20394;-79
2021/11/25 04:06:43;;;;;;;19.35;7.90;;;;;;;19.40;18.43;98005.25;5030599;28;20029;-79
2021/11/25 04:09:09;;;;;;;18.23;8.15;;;;;;;19.98;18.45;97996.94;5030037;28;20037;-79
2021/11/25 04:11:35;;;;;;;14.40;7.18;;;;;;;20.47;17.44;97997.78;5028704;28;20034;-79
2021/11/25 04:14:03;;;;;;;18.38;8.85;;;;;;;20.64;17.31;97994.88;5029454;28;20123;-79
2021/11/25 04:16:31;;;;;;;13.30;6.35;;;;;;;20.54;17.33;97994.94;5032010;28;20021;-78
2021/11/25 04:18:58;;;;;;;15.65;6.97;;;;;;;19.57;18.27;97987.66;5031472;28;20442;-78
2021/11/25 04:21:25;;;;;;;14.40;7.57;;;;;;;19.82;18.34;97985.53;5031703;28;20444;-78
2021/11/25 04:23:52;;;;;;;13.52;7.05;;;;;;;19.95;18.13;97981.03;5028975;28;20112;-78
2021/11/25 04:26:18;;;;;;;15.40;6.93;;;;;;;20.30;17.80;97973.66;5032560;28;20029;-78
2021/11/25 04:28:45;;;;;;;13.20;6.07;;;;;;;20.65;17.38;97962.19;5031953;28;20397;-78
2021/11/25 04:36:41;;;;;;;14.63;5.90;;;;;;;20.97;16.61;97968.22;5031401;28;20048;-78
2021/11/25 04:39:08;;;;;;;14.48;6.63;;;;;;;20.79;16.82;97966.81;5029599;28;20034;-78
2021/11/25 04:41:35;;;;;;;13.57;7.32;;;;;;;20.74;16.96;97956.91;5030966;28;20444;-78
2021/11/25 04:44:01;;;;;;;16.15;6.85;;;;;;;20.91;16.46;97952.34;5031991;28;20022;-78
2021/11/25 04:46:28;;;;;;;12.07;5.63;;;;;;;21.16;16.59;97953.66;5031563;28;20037;-78
2021/11/25 04:48:55;;;;;;;9.75;4.45;;;;;;;20.89;16.56;97949.16;5031387;28;20044;-78
2021/11/25 04:51:21;;;;;;;14.18;5.80;;;;;;;20.80;16.65;97946.88;5025565;28;20409;-78
2021/11/25 04:53:47;;;;;;;11.43;5.55;;;;;;;20.65;16.71;97951.03;5030335;28;20478;-78
2021/11/25 04:56:14;;;;;;;11.13;5.30;;;;;;;20.63;16.71;97933.91;5030300;28;20092;-78
2021/11/25 04:58:40;;;;;;;12.07;5.60;;;;;;;20.60;17.22;97937.53;5049666;28;20033;-78
2021/11/25 05:01:06;;;;;;;13.57;5.40;;;;;;;20.64;17.26;97924.31;5038870;28;20026;-78
2021/11/25 05:03:32;;;;;;;9.20;4.88;;;;;;;20.22;17.37;97927.53;5030310;28;20452;-78
2021/11/25 05:05:58;;;;;;;13.43;5.53;;;;;;;20.23;17.40;97929.13;5031811;28;20033;-78
2021/11/25 05:08:25;;;;;;;10.77;5.45;;;;;;;20.43;17.06;97922.53;5031704;28;20085;-78
2021/11/25 05:10:51;;;;;;;11.93;5.25;;;;;;;20.80;16.49;97913.38;5029520;28;20048;-78
2021/11/25 05:13:17;;;;;;;11.45;5.07;;;;;;;20.85;16.58;97912.94;5023410;28;20087;-78
2021/11/25 05:15:43;;;;;;;9.90;5.50;;;;;;;20.83;16.67;97909.75;5029129;28;20029;-78
2021/11/25 05:18:09;;;;;;;12.55;5.47;;;;;;;20.71;16.63;97909.50;5025484;28;20030;-78
2021/11/25 05:20:36;;;;;;;17.50;7.10;;;;;;;20.42;17.21;97920.19;5027785;28;20532;-78
2021/11/25 05:23:02;;;;;;;13.80;6.25;;;;;;;19.79;17.80;97911.09;5030769;28;20136;-78
2021/11/25 05:25:29;;;;;;;13.27;6.07;;;;;;;19.39;18.05;97903.44;5028348;28;20030;-78
2021/11/25 05:27:55;;;;;;;9.18;5.45;;;;;;;18.72;19.07;97889.78;5025055;28;20417;-78
2021/11/25 05:30:21;;;;;;;12.43;6.32;;;;;;;18.96;18.77;97890.91;5030903;28;20034;-78
2021/11/25 05:32:48;;;;;;;12.13;5.93;;;;;;;19.62;18.36;97888.97;5030726;28;20037;-78
2021/11/25 05:35:16;;;;;;;11.15;6.20;;;;;;;19.81;17.68;97885.66;5031710;28;20021;-78
2021/11/25 05:37:42;;;;;;;10.32;5.35;;;;;;;19.07;18.65;97883.28;5032149;28;20034;-78
2021/11/25 05:40:11;;;;;;;15.30;6.47;;;;;;;18.03;19.27;97883.97;5034270;28;20113;-78
2021/11/25 05:42:37;;;;;;;11.40;6.25;;;;;;;18.71;19.03;97884.66;5034178;28;20017;-76
2021/11/25 05:45:05;;;;;;;14.55;6.82;;;;;;;19.23;18.73;97875.25;5033649;28;20037;-77
2021/11/25 05:47:34;;;;;;;11.98;6.38;;;;;;;19.48;18.19;97875.16;5034889;28;20056;-77
2021/11/25 05:50:01;;;;;;;14.10;6.45;;;;;;;19.89;17.76;97879.59;5036463;28;20041;-77
2021/11/25 05:52:27;;;;;;;13.38;6.97;;;;;;;20.17;16.81;97872.97;5031586;28;20462;-77
2021/11/25 05:54:54;;;;;;;15.80;6.60;;;;;;;19.75;17.32;97876.94;5024511;28;20033;-77
2021/11/25 05:57:21;;;;;;;10.93;5.05;;;;;;;20.10;17.35;97881.41;5025555;28;20057;-77
2021/11/25 05:59:47;;;;;;;12.98;5.13;;;;;;;20.18;17.06;97859.84;5027915;28;20029;-77
2021/11/25 06:02:14;;;;;;;11.57;5.95;;;;;;;20.55;16.69;97865.44;5026862;28;20029;-77
2021/11/25 06:04:40;;;;;;;14.80;6.47;;;;;;;20.74;16.77;97852.88;5036302;28;20080;-77
2021/11/25 06:07:07;;;;;;;11.60;4.95;;;;;;;20.79;16.55;97856.00;5036092;28;20045;-78
2021/11/25 06:09:33;;;;;;;10.70;5.03;;;;;;;20.75;16.60;97855.25;5032635;28;20037;-77
2021/11/25 06:11:59;;;;;;;11.63;5.43;;;;;;;20.96;16.51;97848.59;5034990;28;20090;-78
2021/11/25 06:14:25;;;;;;;9.65;4.88;;;;;;;21.25;16.05;97849.84;5026194;28;20474;-77
2021/11/25 06:16:51;;;;;;;12.38;5.78;;;;;;;21.26;15.92;97852.19;5029982;28;20030;-78
2021/11/25 06:19:17;;;;;;;12.43;5.85;;;;;;;21.28;15.61;97858.16;5033156;28;20034;-77
2021/11/25 06:21:43;;;;;;;11.27;5.97;;;;;;;21.09;15.64;97852.47;5030886;28;20116;-77
2021/11/25 06:24:10;;;;;;;19.90;6.88;;;;;;;21.01;15.74;97846.16;5031568;28;20037;-77
2021/11/25 06:26:39;;;;;;;18.42;7.47;;;;;;;20.92;15.63;97850.66;5015667;28;20034;-77
2021/11/25 06:29:06;;;;;;;14.75;6.13;;;;;;;20.61;16.06;97847.03;5020363;28;20033;-77
2021/11/25 06:31:32;;;;;;;11.20;5.28;;;;;;;20.48;15.98;97835.66;5023153;28;20103;-77
2021/11/25 06:33:58;;;;;;;13.77;6.07;;;;;;;20.58;15.77;97848.66;5028749;28;20109;-77
2021/11/25 06:36:25;;;;;;;37.75;16.90;;;;;;;20.80;15.46;97840.03;5027930;28;20037;-77
2021/11/25 06:38:51;;;;;;;41.10;20.58;;;;;;;20.79;15.39;97850.44;5031446;28;20482;-77
2021/11/25 06:41:17;;;;;;;47.22;20.38;;;;;;;20.58;15.78;97850.69;5025422;28;20065;-78
2021/11/25 06:43:43;;;;;;;38.83;16.08;;;;;;;20.34;16.20;97858.09;5030246;28;20104;-78
2021/11/25 06:46:09;;;;;;;39.42;20.80;;;;;;;20.19;16.26;97850.25;5041716;28;20033;-78
2021/11/25 06:48:35;;;;;;;29.63;15.20;;;;;;;20.48;15.72;97846.00;5029475;28;20108;-78
2021/11/25 06:51:02;;;;;;;34.33;13.80;;;;;;;20.81;15.27;97838.84;5028125;28;20474;-78
2021/11/25 06:53:28;;;;;;;30.08;10.93;;;;;;;20.82;15.27;97840.44;5029761;28;20072;-78
2021/11/25 06:55:55;;;;;;;26.48;10.75;;;;;;;20.74;15.10;97845.31;5027991;28;20493;-78
2021/11/25 06:58:21;;;;;;;29.08;12.77;;;;;;;20.65;15.29;97842.22;5030316;28;20026;-78
2021/11/25 07:00:48;;;;;;;29.45;13.10;;;;;;;20.87;15.16;97840.75;5029413;28;20030;-78
2021/11/25 07:03:14;;;;;;;27.48;11.90;;;;;;;20.39;15.32;97838.16;5024163;28;20033;-78
2021/11/25 07:05:40;;;;;;;47.17;18.02;;;;;;;20.18;15.74;97843.13;5027619;28;20128;-78
2021/11/25 07:08:07;;;;;;;38.58;15.15;;;;;;;20.43;15.79;97852.03;5028908;28;20042;-78
2021/11/25 07:10:34;;;;;;;39.35;17.35;;;;;;;20.68;15.66;97841.38;5027403;28;20426;-78
2021/11/25 07:13:00;;;;;;;37.92;15.77;;;;;;;20.74;16.02;97841.72;5029109;28;20532;-78
2021/11/25 07:15:27;;;;;;;30.00;14.18;;;;;;;21.02;15.93;97842.16;5020951;28;20046;-78
2021/11/25 07:17:55;;;;;;;43.60;16.85;;;;;;;21.31;15.54;97840.56;5025645;28;20556;-80
2021/11/25 07:20:21;;;;;;;44.88;14.98;;;;;;;21.52;15.56;97845.03;5026775;28;20481;-79
2021/11/25 07:22:48;;;;;;;33.40;14.93;;;;;;;21.71;15.28;97841.53;5030302;28;20045;-79
2021/11/25 07:25:17;;;;;;;38.22;16.48;;;;;;;21.70;15.36;97839.97;5029499;28;20479;-79
2021/11/25 07:27:45;;;;;;;40.85;18.90;;;;;;;21.84;15.39;97842.53;5025793;28;20393;-79
2021/11/25 07:30:13;;;;;;;37.00;16.52;;;;;;;21.73;15.33;97838.31;5024754;28;20042;-78
2021/11/25 07:32:40;;;;;;;33.20;15.15;;;;;;;21.91;15.23;97834.03;5033381;28;20041;-78
2021/11/25 07:35:08;;;;;;;38.58;15.73;;;;;;;22.12;15.35;97832.09;5029058;28;20091;-78
2021/11/25 07:37:34;;;;;;;43.92;18.63;;;;;;;22.31;15.02;97836.97;5014617;28;20032;-79
2021/11/25 07:40:00;;;;;;;34.22;16.13;;;;;;;22.33;15.07;97829.72;5028836;28;20036;-78
2021/11/25 07:42:26;;;;;;;39.15;18.00;;;;;;;22.15;15.28;97829.22;5025630;28;20026;-78
2021/11/25 07:44:53;;;;;;;40.65;16.83;;;;;;;22.04;15.34;97834.22;5030962;28;20041;-78
2021/11/25 07:47:30;;;;;;;47.45;19.65;;;;;;;22.09;15.33;97818.97;5034500;28;20049;-78
2021/11/25 07:49:57;;;;;;;45.00;19.20;;;;;;;22.26;15.26;97829.84;5033547;28;20041;-78
2021/11/25 07:52:23;;;;;;;35.50;16.90;;;;;;;22.21;15.55;97826.75;5034239;28;20029;-78
2021/11/25 07:54:49;;;;;;;42.05;17.67;;;;;;;22.28;15.58;97826.63;5033937;28;20477;-78
2021/11/25 07:57:15;;;;;;;34.63;16.13;;;;;;;22.46;15.41;97822.25;5024029;28;20030;-78
2021/11/25 07:59:41;;;;;;;41.25;18.05;;;;;;;22.50;15.32;97811.78;5022249;28;20096;-78
2021/11/25 08:02:08;;;;;;;44.42;18.38;;;;;;;22.50;15.76;97808.97;5028542;28;20033;-78
2021/11/25 08:04:34;;;;;;;36.22;16.48;;;;;;;22.43;15.75;97806.31;5028693;28;20041;-78
2021/11/25 08:07:00;;;;;;;41.05;16.17;;;;;;;22.60;15.77;97798.78;5028454;28;20026;-78
2021/11/25 08:09:26;;;;;;;42.90;19.75;;;;;;;22.64;15.87;97794.75;5029060;28;20111;-78
2021/11/25 08:11:53;;;;;;;35.38;16.60;;;;;;;22.63;15.93;97803.56;5027519;28;20448;-78
2021/11/25 08:14:19;;;;;;;30.40;13.23;;;;;;;22.60;16.06;97799.63;5024155;28;20033;-78
2021/11/25 08:16:45;;;;;;;29.30;14.10;;;;;;;22.64;15.87;97799.53;5020126;28;20116;-78
2021/11/25 08:19:11;;;;;;;30.45;13.73;;;;;;;22.25;16.53;97794.69;5029572;28;20084;-78
2021/11/25 08:21:37;;;;;;;34.20;15.88;;;;;;;22.18;16.72;97800.41;5026810;28;20073;-78
2021/11/25 08:24:03;;;;;;;36.45;15.63;;;;;;;22.25;16.84;97793.91;5026293;28;20045;-79
2021/11/25 08:26:30;;;;;;;27.60;13.48;;;;;;;22.32;17.12;97779.78;5025370;28;20247;-78
2021/11/25 08:28:56;;;;;;;26.08;12.25;;;;;;;22.75;16.61;97790.94;5029306;28;20124;-79
2021/11/25 08:31:22;;;;;;;27.90;13.65;;;;;;;23.06;16.34;97786.63;5030214;28;20037;-79
2021/11/25 08:33:49;;;;;;;26.92;13.88;;;;;;;22.95;16.55;97786.88;5019362;28;20041;-79
2021/11/25 08:36:15;;;;;;;31.35;14.90;;;;;;;23.01;16.56;97787.94;5025279;28;20036;-78
2021/11/25 08:38:41;;;;;;;25.42;12.43;;;;;;;22.88;16.87;97789.03;5024933;28;20037;-79
2021/11/25 08:41:08;;;;;;;26.92;12.90;;;;;;;23.06;16.67;97792.22;5030582;28;20041;-78
2021/11/25 08:43:34;;;;;;;28.05;12.52;;;;;;;23.12;16.63;97779.31;5023997;28;20037;-78
2021/11/25 08:46:02;;;;;;;27.20;13.85;;;;;;;23.18;16.99;97781.16;5020769;28;20548;-78
2021/11/25 08:48:28;;;;;;;21.98;10.88;;;;;;;23.24;16.81;97784.25;5023182;28;20030;-78
2021/11/25 08:50:54;;;;;;;29.63;14.93;;;;;;;23.55;16.96;97779.91;5028468;28;20056;-79
2021/11/25 08:53:23;;;;;;;22.80;10.18;;;;;;;23.76;16.97;97775.78;5021325;28;20107;-79
2021/11/25 08:55:50;;;;;;;19.17;10.40;;;;;;;23.70;17.13;97780.34;5028311;28;20030;-79
2021/11/25 08:58:16;;;;;;;20.80;10.90;;;;;;;23.88;17.11;97775.06;5026198;28;20038;-78
2021/11/25 09:00:43;;;;;;;24.65;12.55;;;;;;;23.88;17.09;97761.84;5025743;28;20080;-79
2021/11/25 09:03:09;;;;;;;22.70;10.93;;;;;;;23.99;17.17;97767.94;5030346;28;20034;-79
2021/11/25 09:05:35;;;;;;;27.63;12.88;;;;;;;24.16;17.09;97765.13;5026104;28;20057;-79
2021/11/25 09:08:01;;;;;;;22.38;12.05;;;;;;;24.25;16.88;97762.50;5020738;28;20033;-79
2021/11/25 09:10:28;;;;;;;38.25;14.70;;;;;;;24.45;16.69;97758.31;5020847;28;20095;-79
2021/11/25 09:12:54;;;;;;;31.88;15.15;;;;;;;24.61;16.77;97760.25;5033430;28;20037;-79
2021/11/25 09:15:22;;;;;;;37.80;15.77;;;;;;;24.65;16.61;97753.31;5032174;28;20029;-79
2021/11/25 09:17:48;;;;;;;25.48;12.70;;;;;;;24.64;16.85;97737.69;5024524;28;20500;-79
2021/11/25 09:20:14;;;;;;;28.85;14.45;;;;;;;24.63;17.00;97743.75;5030783;28;20120;-79
2021/11/25 09:22:41;;;;;;;28.23;14.20;;;;;;;24.69;17.26;97731.50;5025925;28;20042;-79
2021/11/25 09:25:08;;;;;;;25.98;12.80;;;;;;;24.67;17.12;97736.00;5026982;28;20037;-79
2021/11/25 09:27:34;;;;;;;23.92;12.80;;;;;;;24.90;17.04;97726.53;5027533;28;20448;-79
2021/11/25 09:30:01;;;;;;;41.35;17.42;;;;;;;25.02;17.11;97725.75;5020923;28;20063;-79
2021/11/25 09:32:27;;;;;;;32.92;15.40;;;;;;;24.77;17.61;97720.09;5025454;28;20025;-79
2021/11/25 09:34:53;;;;;;;25.00;11.98;;;;;;;24.79;17.54;97726.84;5026156;28;20033;-79
2021/11/25 09:37:20;;;;;;;25.80;13.48;;;;;;;24.67;17.27;97710.72;5032764;28;20037;-79
2021/11/25 09:39:46;;;;;;;20.30;11.57;;;;;;;24.90;17.34;97710.44;5031554;28;20116;-80
2021/11/25 09:42:13;;;;;;;27.48;12.98;;;;;;;25.27;16.97;97709.69;5024326;28;20029;-80
2021/11/25 09:44:39;;;;;;;23.23;12.40;;;;;;;25.29;16.89;97712.03;5028794;28;20108;-80
2021/11/25 09:47:05;;;;;;;28.50;13.43;;;;;;;25.43;17.00;97703.13;5027416;28;20079;-80
2021/11/25 09:49:32;;;;;;;26.80;12.35;;;;;;;25.54;17.12;97699.97;5028708;28;20099;-80
2021/11/25 09:51:59;;;;;;;22.52;11.15;;;;;;;25.53;16.68;97690.00;5023392;28;20029;-80
2021/11/25 09:54:25;;;;;;;22.40;10.82;;;;;;;25.55;16.72;97685.50;5023061;28;20117;-79
2021/11/25 09:56:52;;;;;;;17.25;8.90;;;;;;;25.50;16.34;97680.44;5028118;28;20121;-80
2021/11/25 09:59:19;;;;;;;20.85;10.82;;;;;;;24.79;17.84;97676.31;5026593;28;20046;-79
2021/11/25 10:01:45;;;;;;;24.40;12.75;;;;;;;23.15;18.63;97681.19;5022650;28;20109;-79
2021/11/25 10:04:12;;;;;;;16.58;10.45;;;;;;;21.79;19.39;97668.97;5027751;28;20493;-80
2021/11/25 10:06:53;;;;;;;19.67;11.90;;;;;;;21.27;21.18;97671.50;5019905;28;20112;-80
2021/11/25 10:09:30;;;;;;;20.25;11.15;;;;;;;22.46;19.51;97668.41;5026944;28;20025;-80
2021/11/25 10:11:57;;;;;;;22.58;12.35;;;;;;;23.04;19.20;97669.47;5020960;28;20044;-79
2021/11/25 10:14:37;;;;;;;21.92;11.23;;;;;;;21.45;20.28;97662.84;5025845;28;20070;-80
2021/11/25 10:17:03;;;;;;;26.65;14.27;;;;;;;20.22;22.05;97657.13;5026551;28;20037;-79
2021/11/25 10:19:30;;;;;;;31.02;17.00;;;;;;;19.07;24.01;97653.16;5021755;28;24089;-79
2021/11/25 10:21:58;;;;;;;35.92;19.20;;;;;;;17.77;25.84;97653.91;5023807;28;20123;-80
2021/11/25 10:24:39;;;;;;;34.05;17.55;;;;;;;17.26;27.09;97641.34;5026661;28;20029;-80
2021/11/25 10:27:27;;;;;;;33.22;18.30;;;;;;;18.05;26.15;97633.56;5025318;28;20038;-80
2021/11/25 10:30:13;;;;;;;38.17;20.27;;;;;;;17.06;26.64;97629.06;5024537;28;20037;-80
2021/11/25 10:32:39;;;;;;;40.28;22.45;;;;;;;16.96;28.08;97624.34;5022937;28;20029;-80
2021/11/25 10:35:25;;;;;;;42.45;22.45;;;;;;;16.49;27.51;97624.69;5025805;28;20034;-79
2021/11/25 10:38:21;;;;;;;42.58;23.08;;;;;;;16.28;28.71;97630.97;5025745;28;20029;-80
2021/11/25 10:40:37;;;;;;;50.30;26.60;;;;;;;16.06;29.39;97620.22;5023923;28;20030;-80
2021/11/25 10:43:21;;;;;;;46.88;25.33;;;;;;;16.39;28.95;97606.84;5029854;28;20040;-79
2021/11/25 10:45:50;;;;;;;48.38;24.83;;;;;;;17.47;27.31;97601.63;5026615;28;20025;-80
2021/11/25 10:48:36;;;;;;;55.50;28.95;;;;;;;16.04;29.91;97594.91;5024451;28;20042;-80
2021/11/25 10:51:26;;;;;;;51.15;27.17;;;;;;;16.30;29.54;97589.81;5023258;28;20052;-80
2021/11/25 10:54:10;;;;;;;51.25;28.58;;;;;;;17.17;28.23;97582.69;5024997;28;20037;-80
2021/11/25 10:56:43;;;;;;;55.15;30.27;;;;;;;16.49;28.45;97575.59;5025803;28;20478;-80
2021/11/25 10:59:13;;;;;;;52.17;26.77;;;;;;;16.83;27.71;97576.00;5027619;28;20108;-80
2021/11/25 11:01:57;;;;;;;52.00;27.77;;;;;;;15.36;28.09;97565.38;5019868;28;20058;-80
2021/11/25 11:04:25;;;;;;;44.08;23.45;;;;;;;15.99;28.07;97565.63;5024213;28;20288;-79
2021/11/25 11:06:51;;;;;;;42.60;24.15;;;;;;;17.54;26.39;97557.25;5026786;28;20358;-80
2021/11/25 11:09:39;;;;;;;39.92;22.83;;;;;;;17.01;26.75;97545.50;5034924;28;20033;-80
2021/11/25 11:12:31;;;;;;;44.10;22.83;;;;;;;16.41;26.94;97546.31;5026618;28;20082;-80
2021/11/25 11:15:13;;;;;;;35.20;20.35;;;;;;;18.09;25.41;97542.66;5026389;28;20033;-80
2021/11/25 11:20:26;;;;;;;32.47;17.67;;;;;;;18.09;24.88;97529.56;5029535;28;20552;-81
2021/11/25 11:23:02;;;;;;;30.67;17.60;;;;;;;19.15;23.54;97528.66;5025353;28;20490;-80
2021/11/25 11:25:33;;;;;;;30.75;15.38;;;;;;;21.10;21.10;97533.00;5023609;28;20030;-80
2021/11/25 11:28:00;;;;;;;;;;;;;;;20.26;22.21;97519.28;5019728;28;21626;-80
2021/11/25 11:30:28;;;;;;;32.13;18.42;;;;;;;18.43;24.50;97530.50;5014995;28;19960;-80